Time;durP1;ratioP1;P1;durP2;ratioP2;P2;SDS_P1;SDS_P2;PMS_P1;PMS_P2;Temp;Humidity;BMP_temperature;BMP_pressure;BME280_temperature;BME280_humidity;BME280_pressure;Samples;Min_cycle;Max_cycle;Signal;HPM_P1;HPM_P2
2022/02/12 00:01:09;;;;;;;17.50;5.85;;;-0.90;99.90;;;;;;5037444;28;20040;-69
2022/02/12 00:03:35;;;;;;;19.63;5.90;;;-1.00;99.90;;;;;;5041283;28;20446;-69
2022/02/12 00:06:00;;;;;;;19.17;5.50;;;-1.00;99.90;;;;;;5035947;28;20068;-69
2022/02/12 00:08:26;;;;;;;24.48;5.70;;;-1.00;99.90;;;;;;5038258;28;20033;-69
2022/02/12 00:10:52;;;;;;;20.42;5.65;;;-1.00;99.90;;;;;;4998555;28;1081104;-69
2022/02/12 00:13:17;;;;;;;18.35;5.78;;;-1.00;99.90;;;;;;5038982;28;20144;-69
2022/02/12 00:15:43;;;;;;;17.52;5.30;;;-1.00;99.90;;;;;;5053473;28;20040;-69
2022/02/12 00:18:09;;;;;;;13.70;4.93;;;-1.00;99.90;;;;;;5041317;28;20045;-69
2022/02/12 00:20:36;;;;;;;12.65;5.30;;;-1.00;99.90;;;;;;5035667;28;20037;-69
2022/02/12 00:23:01;;;;;;;15.73;5.68;;;-1.00;99.90;;;;;;5039305;28;20114;-69
2022/02/12 00:25:27;;;;;;;19.95;5.63;;;-1.00;99.90;;;;;;5038368;28;20037;-69
2022/02/12 00:27:53;;;;;;;12.32;5.05;;;-0.90;99.90;;;;;;5037502;28;20063;-69
2022/02/12 00:30:18;;;;;;;17.23;5.30;;;-0.90;99.90;;;;;;5035968;28;20488;-70
2022/02/12 00:32:44;;;;;;;17.02;5.53;;;-0.90;99.90;;;;;;5036996;28;20045;-70
2022/02/12 00:35:10;;;;;;;15.77;5.80;;;-1.00;99.90;;;;;;5037695;28;20183;-70
2022/02/12 00:37:35;;;;;;;13.10;5.15;;;-1.00;99.90;;;;;;5037163;28;20464;-70
2022/02/12 00:40:02;;;;;;;19.23;5.00;;;-0.90;99.90;;;;;;5044846;28;20045;-70
2022/02/12 00:42:28;;;;;;;16.55;6.45;;;-1.00;99.90;;;;;;5039143;28;20106;-70
2022/02/12 00:44:54;;;;;;;14.25;4.97;;;-1.00;99.90;;;;;;5037485;28;20477;-70
2022/02/12 00:47:20;;;;;;;14.65;4.85;;;-1.00;99.90;;;;;;5026335;28;20124;-70
2022/02/12 00:49:45;;;;;;;12.65;4.88;;;-1.00;99.90;;;;;;5043906;28;20136;-70
2022/02/12 00:52:11;;;;;;;14.18;5.32;;;-1.00;99.90;;;;;;5025952;28;20103;-70
2022/02/12 00:54:37;;;;;;;23.63;5.80;;;-1.00;99.90;;;;;;5041736;28;20040;-70
2022/02/12 00:57:04;;;;;;;15.25;5.38;;;-1.00;99.90;;;;;;5043584;28;20045;-70
2022/02/12 00:59:30;;;;;;;15.32;5.30;;;-1.00;99.90;;;;;;5043940;28;20080;-70
2022/02/12 01:01:56;;;;;;;15.98;4.65;;;-1.00;99.90;;;;;;5038756;28;20087;-68
2022/02/12 01:04:22;;;;;;;13.57;5.38;;;-1.00;99.90;;;;;;5041453;28;20052;-69
2022/02/12 01:06:49;;;;;;;17.85;4.72;;;-1.00;99.90;;;;;;5043142;28;20478;-69
2022/02/12 01:09:14;;;;;;;14.18;4.80;;;-0.90;99.90;;;;;;5040367;28;20124;-69
2022/02/12 01:11:40;;;;;;;18.88;5.32;;;-1.00;99.90;;;;;;5040412;28;20132;-69
2022/02/12 01:14:06;;;;;;;17.75;5.10;;;-1.00;99.90;;;;;;5041579;28;20584;-69
2022/02/12 01:16:32;;;;;;;16.25;4.70;;;-1.00;99.90;;;;;;5039991;28;20041;-69
2022/02/12 01:18:58;;;;;;;22.58;5.18;;;-0.90;99.90;;;;;;5043036;28;20192;-69
2022/02/12 01:21:23;;;;;;;18.08;5.35;;;-0.90;99.90;;;;;;5041817;28;20118;-69
2022/02/12 01:23:49;;;;;;;16.13;5.60;;;-1.00;99.90;;;;;;5025964;28;20082;-69
2022/02/12 01:26:16;;;;;;;14.13;4.25;;;-1.00;99.90;;;;;;5043073;28;20140;-69
2022/02/12 01:28:42;;;;;;;17.35;5.00;;;-1.00;99.90;;;;;;5040690;28;20049;-69
2022/02/12 01:31:08;;;;;;;14.57;4.65;;;-1.10;99.90;;;;;;5038636;28;20051;-70
2022/02/12 01:33:33;;;;;;;10.70;4.43;;;-1.10;99.90;;;;;;5041228;28;20049;-70
2022/02/12 01:35:59;;;;;;;13.07;4.70;;;-1.10;99.90;;;;;;5041859;28;20130;-70
2022/02/12 01:38:27;;;;;;;17.05;4.43;;;-1.10;99.90;;;;;;5038460;28;20051;-70
2022/02/12 01:40:55;;;;;;;16.67;4.88;;;-1.20;99.90;;;;;;5038656;28;20565;-70
2022/02/12 01:43:20;;;;;;;18.00;4.88;;;-1.20;99.90;;;;;;5039634;28;20105;-70
2022/02/12 01:45:46;;;;;;;16.02;4.82;;;-1.20;99.90;;;;;;5025291;28;20110;-70
2022/02/12 01:48:13;;;;;;;14.25;4.82;;;-1.20;99.90;;;;;;5023117;28;20045;-70
2022/02/12 01:50:39;;;;;;;16.90;4.70;;;-1.20;99.90;;;;;;5040705;28;20047;-70
2022/02/12 01:53:05;;;;;;;13.55;5.00;;;-1.20;99.90;;;;;;5041171;28;20045;-70
2022/02/12 01:55:31;;;;;;;17.05;4.95;;;-1.20;99.90;;;;;;5025026;28;20423;-70
2022/02/12 01:57:57;;;;;;;17.20;5.00;;;-1.20;99.90;;;;;;5040459;28;21173;-70
2022/02/12 02:00:23;;;;;;;21.27;5.07;;;-1.20;99.90;;;;;;5039833;28;20065;-70
2022/02/12 02:02:49;;;;;;;16.00;4.90;;;-1.20;99.90;;;;;;5038151;28;20110;-70
2022/02/12 02:05:17;;;;;;;13.70;4.40;;;-1.20;99.90;;;;;;5040181;28;20048;-70
2022/02/12 02:07:43;;;;;;;16.13;4.88;;;-1.20;99.90;;;;;;5040418;28;20103;-70
2022/02/12 02:10:11;;;;;;;17.35;5.20;;;-1.20;99.90;;;;;;5024624;28;20450;-69
2022/02/12 02:12:37;;;;;;;19.30;5.15;;;-1.20;99.90;;;;;;5023361;28;20713;-69
2022/02/12 02:15:04;;;;;;;17.08;4.85;;;-1.20;99.90;;;;;;5026185;28;20055;-70
2022/02/12 02:17:30;;;;;;;15.63;5.43;;;-1.20;99.90;;;;;;5038614;28;20362;-70
2022/02/12 02:19:56;;;;;;;15.98;5.07;;;-1.20;99.90;;;;;;5037893;28;20202;-70
2022/02/12 02:22:29;;;;;;;18.02;5.25;;;-1.20;99.90;;;;;;5040181;28;20583;-70
2022/02/12 02:24:55;;;;;;;15.82;5.70;;;-1.20;99.90;;;;;;5039393;28;20052;-70
2022/02/12 02:27:21;;;;;;;17.30;5.55;;;-1.20;99.90;;;;;;5040421;28;20037;-70
2022/02/12 02:29:47;;;;;;;15.30;5.03;;;-1.10;99.90;;;;;;5041336;28;20037;-70
2022/02/12 02:32:14;;;;;;;20.08;5.13;;;-1.10;99.90;;;;;;5037727;28;20063;-70
2022/02/12 02:34:54;;;;;;;15.45;5.38;;;-1.10;99.90;;;;;;5035072;28;20091;-70
2022/02/12 02:37:22;;;;;;;14.02;5.05;;;-1.00;99.90;;;;;;5038869;28;20400;-70
2022/02/12 02:39:48;;;;;;;10.48;5.13;;;-1.00;99.90;;;;;;5040507;28;20079;-70
2022/02/12 02:42:14;;;;;;;18.38;5.55;;;-1.00;99.90;;;;;;5024422;28;20052;-70
2022/02/12 02:44:40;;;;;;;17.63;5.22;;;-0.90;99.90;;;;;;5041220;28;20452;-70
2022/02/12 02:49:51;;;;;;;15.30;5.35;;;-0.90;99.90;;;;;;5036580;28;20175;-70
2022/02/12 02:57:50;;;;;;;13.05;4.65;;;-0.80;99.90;;;;;;5030233;28;21481;-70
2022/02/12 03:00:16;;;;;;;16.35;5.63;;;-0.90;99.90;;;;;;5023479;28;20470;-70
2022/02/12 03:02:42;;;;;;;16.52;5.05;;;-0.80;99.90;;;;;;5038242;28;20563;-70
2022/02/12 03:05:08;;;;;;;23.85;4.75;;;-0.80;99.90;;;;;;5042215;28;20032;-70
2022/02/12 03:07:34;;;;;;;20.42;4.68;;;-0.90;99.90;;;;;;5039123;28;20029;-70
2022/02/12 03:09:59;;;;;;;12.55;4.38;;;-0.80;99.90;;;;;;5035817;28;20309;-70
2022/02/12 03:12:25;;;;;;;14.80;4.70;;;-0.80;99.90;;;;;;5040672;28;20128;-70
2022/02/12 03:14:51;;;;;;;17.27;4.57;;;-0.80;99.90;;;;;;5036048;28;20301;-70
2022/02/12 03:17:17;;;;;;;17.83;4.43;;;-0.80;99.90;;;;;;5023987;28;20107;-70
2022/02/12 03:19:42;;;;;;;13.65;4.32;;;-0.80;99.90;;;;;;5039254;28;20068;-70
2022/02/12 03:22:08;;;;;;;17.10;4.45;;;-0.80;99.90;;;;;;5022382;28;20052;-70
2022/02/12 03:24:35;;;;;;;14.45;3.47;;;-0.80;99.90;;;;;;5036856;28;20447;-70
2022/02/12 03:27:00;;;;;;;11.18;4.13;;;-0.80;99.90;;;;;;5029396;28;20527;-70
2022/02/12 03:29:26;;;;;;;20.02;4.25;;;-0.80;99.90;;;;;;5038369;28;20037;-70
2022/02/12 03:31:52;;;;;;;15.48;3.67;;;-0.80;99.90;;;;;;5035395;28;20045;-70
2022/02/12 03:34:18;;;;;;;18.35;3.67;;;-0.80;99.90;;;;;;5038904;28;20531;-70
2022/02/12 03:36:43;;;;;;;16.15;4.32;;;-0.80;99.90;;;;;;5038885;28;20102;-70
2022/02/12 03:39:09;;;;;;;17.63;5.32;;;-0.80;99.90;;;;;;5039491;28;20049;-70
2022/02/12 03:41:35;;;;;;;12.95;4.30;;;-0.80;99.90;;;;;;5041181;28;20041;-70
2022/02/12 03:44:00;;;;;;;17.77;4.47;;;-0.80;99.90;;;;;;5042757;28;20124;-70
2022/02/12 03:46:26;;;;;;;14.95;4.35;;;-0.80;99.90;;;;;;5035936;28;20053;-70
2022/02/12 03:48:51;;;;;;;20.70;4.63;;;-0.80;99.90;;;;;;5039671;28;20047;-70
2022/02/12 03:51:18;;;;;;;13.75;4.20;;;-0.80;99.90;;;;;;5039972;28;20045;-70
2022/02/12 03:53:49;;;;;;;16.65;4.30;;;-0.80;99.90;;;;;;5043413;28;20128;-70
2022/02/12 03:56:15;;;;;;;12.77;4.15;;;-0.80;99.90;;;;;;5034362;28;20034;-70
2022/02/12 03:58:41;;;;;;;14.45;3.80;;;-0.80;99.90;;;;;;5038934;28;20041;-70
2022/02/12 04:01:07;;;;;;;14.80;4.22;;;-0.80;99.90;;;;;;5025921;28;20037;-69
2022/02/12 04:03:32;;;;;;;19.38;4.75;;;-0.80;99.90;;;;;;5038519;28;20113;-70
2022/02/12 04:05:58;;;;;;;16.00;4.90;;;-0.80;99.90;;;;;;5029734;28;20049;-70
2022/02/12 04:08:25;;;;;;;15.98;4.55;;;-0.80;99.90;;;;;;5038905;28;20425;-70
2022/02/12 04:10:51;;;;;;;14.30;4.25;;;-0.80;99.90;;;;;;5036676;28;20041;-70
2022/02/12 04:13:18;;;;;;;19.23;4.88;;;-0.70;99.90;;;;;;5044088;28;20121;-69
2022/02/12 04:15:44;;;;;;;15.98;5.80;;;-0.70;99.90;;;;;;5031821;28;20401;-69
2022/02/12 04:18:14;;;;;;;16.13;4.68;;;-0.70;99.90;;;;;;5042357;28;20029;-69
2022/02/12 04:20:40;;;;;;;19.80;5.32;;;-0.70;99.90;;;;;;5034792;28;20056;-69
2022/02/12 04:23:07;;;;;;;18.15;5.22;;;-0.70;99.90;;;;;;5041560;28;20045;-69
2022/02/12 04:25:33;;;;;;;16.38;5.25;;;-0.70;99.90;;;;;;5042452;28;20519;-69
2022/02/12 04:28:04;;;;;;;15.95;5.57;;;-0.70;99.90;;;;;;5042011;28;20036;-70
2022/02/12 04:30:29;;;;;;;17.42;6.32;;;-0.70;99.90;;;;;;5027632;28;20453;-70
2022/02/12 04:32:55;;;;;;;20.90;5.55;;;-0.70;99.90;;;;;;5041785;28;20049;-70
2022/02/12 04:35:21;;;;;;;18.05;5.40;;;-0.70;99.90;;;;;;5045724;28;20160;-70
2022/02/12 04:37:47;;;;;;;16.77;4.95;;;-0.80;99.90;;;;;;5047244;28;20056;-70
2022/02/12 04:40:13;;;;;;;16.80;5.47;;;-0.80;99.90;;;;;;5030229;28;20057;-69
2022/02/12 04:42:39;;;;;;;20.10;5.88;;;-0.70;99.90;;;;;;5040628;28;20037;-69
2022/02/12 04:45:05;;;;;;;17.90;6.15;;;-0.70;99.90;;;;;;5046365;28;20045;-70
2022/02/12 04:47:32;;;;;;;20.17;5.75;;;-0.70;99.90;;;;;;5043659;28;20072;-69
2022/02/12 04:49:57;;;;;;;18.98;6.07;;;-0.80;99.90;;;;;;5045629;28;20374;-69
2022/02/12 04:52:23;;;;;;;17.67;6.25;;;-0.80;99.90;;;;;;5043507;28;20059;-69
2022/02/12 04:54:49;;;;;;;16.08;5.82;;;-0.80;99.90;;;;;;5047136;28;20524;-69
2022/02/12 04:57:16;;;;;;;25.80;6.50;;;-0.80;99.90;;;;;;5029781;28;20049;-69
2022/02/12 04:59:41;;;;;;;18.48;6.20;;;-0.80;99.90;;;;;;5044025;28;20134;-69
2022/02/12 05:02:07;;;;;;;18.55;6.53;;;-0.80;99.90;;;;;;5028742;28;20500;-69
2022/02/12 05:04:33;;;;;;;21.08;6.53;;;-0.80;99.90;;;;;;5041374;28;20509;-69
2022/02/12 05:06:59;;;;;;;21.45;6.40;;;-0.80;99.90;;;;;;5046338;28;20110;-69
2022/02/12 05:09:25;;;;;;;19.73;6.50;;;-0.80;99.90;;;;;;5042762;28;20045;-69
2022/02/12 05:11:51;;;;;;;23.63;7.18;;;-0.80;99.90;;;;;;5027694;28;20409;-69
2022/02/12 05:14:17;;;;;;;22.23;6.88;;;-0.80;99.90;;;;;;5030939;28;20063;-70
2022/02/12 05:16:43;;;;;;;20.42;7.03;;;-0.80;99.90;;;;;;5045010;28;20509;-70
2022/02/12 05:19:09;;;;;;;21.52;6.85;;;-0.70;99.90;;;;;;5045626;28;20048;-69
2022/02/12 05:21:35;;;;;;;16.80;6.85;;;-0.70;99.90;;;;;;5046452;28;20037;-69
2022/02/12 05:24:01;;;;;;;15.50;6.18;;;-0.70;99.90;;;;;;5046555;28;20118;-69
2022/02/12 05:26:29;;;;;;;16.92;6.55;;;-0.70;99.90;;;;;;5041967;28;20045;-69
2022/02/12 05:28:55;;;;;;;21.08;7.07;;;-0.70;99.90;;;;;;5045242;28;20099;-69
2022/02/12 05:31:21;;;;;;;19.00;6.85;;;-0.70;99.90;;;;;;5042541;28;20040;-69
2022/02/12 05:33:47;;;;;;;22.80;7.80;;;-0.70;99.90;;;;;;5039464;28;20060;-69
2022/02/12 05:36:14;;;;;;;15.40;7.13;;;-0.70;99.90;;;;;;5046009;28;20406;-69
2022/02/12 05:38:41;;;;;;;16.45;7.35;;;-0.70;99.90;;;;;;5046170;28;20128;-69
2022/02/12 05:41:08;;;;;;;20.52;7.78;;;-0.70;99.90;;;;;;5039387;28;20215;-69
2022/02/12 05:43:33;;;;;;;19.95;8.32;;;-0.70;99.90;;;;;;5040893;28;20040;-69
2022/02/12 05:46:00;;;;;;;15.43;7.25;;;-0.70;99.90;;;;;;5043924;28;20045;-69
2022/02/12 05:48:26;;;;;;;24.08;8.48;;;-0.70;99.90;;;;;;5028930;28;20052;-69
2022/02/12 05:50:53;;;;;;;19.33;8.45;;;-0.70;99.90;;;;;;5042838;28;20417;-69
2022/02/12 05:53:19;;;;;;;19.65;8.48;;;-0.60;99.90;;;;;;5045312;28;20144;-69
2022/02/12 05:55:46;;;;;;;19.58;8.80;;;-0.70;99.90;;;;;;5042222;28;20416;-69
2022/02/12 05:58:11;;;;;;;16.33;8.32;;;-0.60;99.90;;;;;;5042076;28;20581;-69
2022/02/12 06:00:37;;;;;;;18.00;8.38;;;-0.70;99.90;;;;;;5045456;28;20095;-69
2022/02/12 06:03:03;;;;;;;18.77;8.70;;;-0.70;99.90;;;;;;5042363;28;20041;-69
2022/02/12 06:05:29;;;;;;;22.83;9.20;;;-0.70;99.90;;;;;;5045405;28;20507;-69
2022/02/12 06:07:54;;;;;;;19.13;9.75;;;-0.70;99.90;;;;;;5043747;28;20048;-69
2022/02/12 06:10:26;;;;;;;19.15;9.32;;;-0.70;99.90;;;;;;5045408;28;20037;-69
2022/02/12 06:12:52;;;;;;;22.98;9.30;;;-0.70;99.90;;;;;;5044084;28;20209;-69
2022/02/12 06:15:18;;;;;;;19.27;8.85;;;-0.70;99.90;;;;;;5042535;28;20041;-69
2022/02/12 06:17:44;;;;;;;17.70;8.73;;;-0.60;99.90;;;;;;5042559;28;20064;-69
2022/02/12 06:20:10;;;;;;;24.10;9.82;;;-0.60;99.90;;;;;;5044975;28;20045;-69
2022/02/12 06:22:36;;;;;;;18.02;9.35;;;-0.60;99.90;;;;;;5044314;28;20112;-69
2022/02/12 06:25:02;;;;;;;21.73;9.75;;;-0.60;99.90;;;;;;5041834;28;20175;-69
2022/02/12 06:27:28;;;;;;;21.75;9.65;;;-0.60;99.90;;;;;;5041425;28;20167;-69
2022/02/12 06:29:54;;;;;;;16.70;9.45;;;-0.60;99.90;;;;;;5044693;28;20567;-69
2022/02/12 06:32:21;;;;;;;19.63;10.27;;;-0.60;99.90;;;;;;5040295;28;20398;-69
2022/02/12 06:34:46;;;;;;;25.63;10.05;;;-0.60;99.90;;;;;;5044768;28;20107;-69
2022/02/12 06:37:12;;;;;;;20.42;9.55;;;-0.60;99.90;;;;;;5042944;28;20053;-69
2022/02/12 06:39:38;;;;;;;17.70;9.65;;;-0.60;99.90;;;;;;5039697;28;20044;-69
2022/02/12 06:42:04;;;;;;;16.00;8.88;;;-0.60;99.90;;;;;;5044283;28;20045;-69
2022/02/12 06:44:30;;;;;;;14.60;9.18;;;-0.60;99.90;;;;;;5041796;28;20045;-69
2022/02/12 06:46:56;;;;;;;21.08;9.18;;;-0.60;99.90;;;;;;5041264;28;20403;-69
2022/02/12 06:49:21;;;;;;;20.45;8.93;;;-0.60;99.90;;;;;;5044902;28;20075;-69
2022/02/12 06:51:47;;;;;;;24.40;9.18;;;-0.60;99.90;;;;;;5043789;28;20382;-69
2022/02/12 06:54:13;;;;;;;22.23;8.85;;;-0.60;99.90;;;;;;5044510;28;20040;-69
2022/02/12 06:56:38;;;;;;;19.75;9.68;;;-0.70;99.90;;;;;;5040699;28;20422;-69
2022/02/12 06:59:04;;;;;;;19.50;9.27;;;-0.60;99.90;;;;;;5042563;28;20484;-69
2022/02/12 07:01:30;;;;;;;22.63;9.43;;;-0.60;99.90;;;;;;5040096;28;20045;-69
2022/02/12 07:03:56;;;;;;;18.10;8.75;;;-0.60;99.90;;;;;;5022337;28;20482;-69
2022/02/12 07:06:24;;;;;;;18.85;9.20;;;-0.60;99.90;;;;;;5042685;28;20164;-68
2022/02/12 07:08:51;;;;;;;18.58;9.00;;;-0.60;99.90;;;;;;5035595;28;20149;-68
2022/02/12 07:11:18;;;;;;;20.73;9.40;;;-0.60;99.90;;;;;;5039935;28;20486;-69
2022/02/12 07:13:44;;;;;;;19.77;8.82;;;-0.60;99.90;;;;;;5044619;28;20055;-68
2022/02/12 07:16:10;;;;;;;23.50;10.55;;;-0.60;99.90;;;;;;5038886;28;20075;-68
2022/02/12 07:18:36;;;;;;;22.92;9.75;;;-0.60;99.90;;;;;;5044013;28;20032;-68
2022/02/12 07:21:01;;;;;;;17.40;9.15;;;-0.50;99.90;;;;;;5039964;28;20094;-68
2022/02/12 07:23:27;;;;;;;26.27;10.13;;;-0.50;99.90;;;;;;5037786;28;20077;-69
2022/02/12 07:25:53;;;;;;;17.27;9.85;;;-0.50;99.90;;;;;;5041962;28;20039;-69
2022/02/12 07:28:19;;;;;;;20.42;10.23;;;-0.50;99.90;;;;;;5041396;28;20517;-69
2022/02/12 07:30:45;;;;;;;24.83;10.77;;;-0.40;99.90;;;;;;5044720;28;20172;-69
2022/02/12 07:33:10;;;;;;;26.90;10.70;;;-0.40;99.90;;;;;;5044915;28;20108;-69
2022/02/12 07:35:36;;;;;;;20.83;9.77;;;-0.30;99.90;;;;;;5043176;28;20112;-69
2022/02/12 07:38:02;;;;;;;23.50;10.50;;;-0.30;99.90;;;;;;5045818;28;20049;-69
2022/02/12 07:40:28;;;;;;;18.98;9.90;;;-0.20;99.90;;;;;;5023019;28;20056;-69
2022/02/12 07:42:54;;;;;;;21.42;10.45;;;-0.10;99.90;;;;;;5038981;28;20116;-69
2022/02/12 07:45:20;;;;;;;20.92;11.18;;;0.10;99.90;;;;;;5044418;28;20059;-69
2022/02/12 07:47:47;;;;;;;20.27;10.35;;;0.30;99.90;;;;;;5044802;28;20041;-69
2022/02/12 07:50:15;;;;;;;17.67;10.27;;;0.70;99.90;;;;;;5031362;28;20120;-69
2022/02/12 07:52:43;;;;;;;16.77;10.07;;;1.30;99.90;;;;;;5044568;28;20060;-69
2022/02/12 07:55:18;;;;;;;21.95;10.30;;;1.70;99.90;;;;;;5042562;28;20053;-69
2022/02/12 07:57:45;;;;;;;22.02;9.85;;;1.90;99.90;;;;;;5033633;28;20071;-69
2022/02/12 08:00:13;;;;;;;18.60;9.23;;;2.40;99.90;;;;;;5044905;28;20064;-69
2022/02/12 08:02:39;;;;;;;18.02;9.73;;;2.80;99.90;;;;;;5042836;28;20466;-68
2022/02/12 08:05:07;;;;;;;18.63;9.18;;;3.30;99.90;;;;;;5050414;28;20091;-68
2022/02/12 08:07:34;;;;;;;21.40;10.60;;;3.80;99.90;;;;;;5042345;28;20048;-69
2022/02/12 08:12:56;;;;;;;20.58;9.82;;;4.70;99.90;;;;;;5045339;28;20060;-69
2022/02/12 08:15:23;;;;;;;17.17;8.60;;;5.10;99.90;;;;;;5048290;28;20060;-68
2022/02/12 08:17:49;;;;;;;25.27;9.68;;;5.40;99.90;;;;;;5042050;28;20045;-69
2022/02/12 08:20:15;;;;;;;21.98;8.38;;;5.70;99.90;;;;;;5048200;28;20044;-69
2022/02/12 08:22:42;;;;;;;16.60;7.57;;;5.90;99.90;;;;;;5045773;28;20041;-69
2022/02/12 08:25:09;;;;;;;18.77;8.35;;;6.00;99.90;;;;;;5043063;28;20040;-69
2022/02/12 08:27:36;;;;;;;16.10;7.18;;;6.40;99.90;;;;;;5043360;28;20041;-69
2022/02/12 08:30:02;;;;;;;13.07;6.75;;;6.70;99.90;;;;;;5045303;28;20051;-68
2022/02/12 08:32:28;;;;;;;16.48;7.47;;;6.90;99.90;;;;;;5044322;28;20875;-68
2022/02/12 08:34:54;;;;;;;21.70;7.45;;;7.00;99.90;;;;;;5045107;28;20102;-68
2022/02/12 08:37:21;;;;;;;19.67;7.15;;;7.20;99.80;;;;;;5047832;28;20907;-68
2022/02/12 08:39:49;;;;;;;14.25;6.50;;;7.60;99.40;;;;;;5050253;28;20033;-68
2022/02/12 08:42:15;;;;;;;15.10;7.20;;;7.70;97.90;;;;;;5044387;28;20037;-68
2022/02/12 08:44:41;;;;;;;17.90;7.07;;;7.70;96.30;;;;;;5046660;28;20052;-68
2022/02/12 08:47:11;;;;;;;11.43;6.15;;;7.90;96.50;;;;;;5045791;28;20405;-69
2022/02/12 08:49:37;;;;;;;13.07;6.88;;;8.20;96.60;;;;;;5043071;28;20107;-68
2022/02/12 08:52:03;;;;;;;17.75;6.32;;;8.60;96.30;;;;;;5051102;28;20044;-69
2022/02/12 08:54:29;;;;;;;13.77;6.05;;;8.90;95.30;;;;;;5031623;28;20036;-69
2022/02/12 08:56:56;;;;;;;10.85;5.85;;;9.20;94.50;;;;;;5044150;28;20032;-69
2022/02/12 08:59:21;;;;;;;17.13;6.45;;;9.60;94.40;;;;;;5043007;28;20124;-69
2022/02/12 09:01:47;;;;;;;17.90;6.05;;;9.80;93.20;;;;;;5037424;28;20136;-69
2022/02/12 09:04:13;;;;;;;18.30;6.47;;;9.90;92.00;;;;;;5044893;28;20049;-69
2022/02/12 09:06:39;;;;;;;14.95;6.25;;;10.00;91.10;;;;;;5047959;28;20442;-69
2022/02/12 09:09:08;;;;;;;15.45;5.90;;;10.00;90.30;;;;;;5046887;28;20486;-69
2022/02/12 09:11:39;;;;;;;12.63;5.65;;;10.20;90.20;;;;;;5042348;28;20056;-69
2022/02/12 09:14:05;;;;;;;14.75;5.72;;;10.30;89.40;;;;;;5041461;28;20052;-69
2022/02/12 09:16:31;;;;;;;14.80;5.57;;;10.40;88.00;;;;;;5042399;28;20047;-69
2022/02/12 09:18:57;;;;;;;15.30;5.60;;;10.60;88.10;;;;;;5046430;28;20033;-69
2022/02/12 09:21:23;;;;;;;11.15;4.85;;;10.70;85.90;;;;;;5044229;28;20193;-69
2022/02/12 09:23:50;;;;;;;15.07;4.95;;;10.80;85.70;;;;;;5042563;28;20061;-69
2022/02/12 09:26:18;;;;;;;15.43;5.20;;;11.10;83.90;;;;;;5048250;28;20037;-69
2022/02/12 09:28:44;;;;;;;17.52;5.70;;;11.20;82.30;;;;;;5044626;28;20355;-69
2022/02/12 09:31:10;;;;;;;15.73;5.65;;;11.40;81.70;;;;;;5048484;28;20052;-69
2022/02/12 09:33:35;;;;;;;15.18;5.68;;;11.40;78.60;;;;;;5043757;28;20192;-69
2022/02/12 09:36:01;;;;;;;11.32;5.25;;;11.50;78.20;;;;;;5041719;28;20493;-69
2022/02/12 09:38:30;;;;;;;9.85;4.60;;;11.60;77.20;;;;;;5047384;28;20035;-69
2022/02/12 09:40:57;;;;;;;13.23;4.75;;;11.70;74.70;;;;;;5044426;28;20452;-69
2022/02/12 09:43:25;;;;;;;8.60;3.50;;;11.80;75.80;;;;;;5046816;28;20068;-69
2022/02/12 09:45:51;;;;;;;14.57;4.63;;;11.70;74.40;;;;;;5045127;28;20393;-69
2022/02/12 09:48:18;;;;;;;11.18;3.72;;;11.70;73.50;;;;;;5042422;28;20044;-69
2022/02/12 09:50:45;;;;;;;11.95;3.63;;;11.70;72.90;;;;;;5061296;28;20099;-69
2022/02/12 09:53:12;;;;;;;11.10;3.85;;;11.80;72.00;;;;;;5044267;28;20033;-69
2022/02/12 09:55:37;;;;;;;9.93;4.15;;;12.00;72.70;;;;;;5057554;28;20076;-69
2022/02/12 09:58:04;;;;;;;14.93;3.65;;;12.10;73.00;;;;;;5047299;28;20072;-69
2022/02/12 10:00:30;;;;;;;14.13;4.32;;;12.10;70.50;;;;;;5042320;28;20049;-69
2022/02/12 10:02:56;;;;;;;12.80;4.40;;;12.20;71.30;;;;;;5046533;28;20030;-69
2022/02/12 10:05:24;;;;;;;10.18;3.28;;;12.30;71.30;;;;;;5048348;28;20152;-69
2022/02/12 10:08:07;;;;;;;9.85;3.45;;;12.20;69.20;;;;;;5041563;28;20055;-69
2022/02/12 10:10:36;;;;;;;12.27;3.90;;;12.20;68.40;;;;;;5045914;28;20057;-69
2022/02/12 10:13:21;;;;;;;10.25;3.67;;;12.30;69.20;;;;;;5043776;28;20276;-69
2022/02/12 10:15:50;;;;;;;12.13;3.75;;;12.50;68.40;;;;;;5038568;28;20056;-69
2022/02/12 10:18:20;;;;;;;13.25;4.35;;;12.60;66.50;;;;;;5045317;28;20080;-69
2022/02/12 10:20:46;;;;;;;11.43;3.72;;;12.50;65.60;;;;;;5028596;28;20049;-69
2022/02/12 10:23:16;;;;;;;12.15;3.88;;;12.30;66.10;;;;;;5044389;28;20037;-69
2022/02/12 10:25:44;;;;;;;10.35;3.55;;;12.40;66.20;;;;;;5045134;28;20037;-69
2022/02/12 10:28:12;;;;;;;13.60;3.63;;;12.50;66.70;;;;;;5043065;28;20068;-70
2022/02/12 10:30:39;;;;;;;10.88;3.58;;;12.70;66.60;;;;;;5041834;28;20053;-69
2022/02/12 10:33:08;;;;;;;12.40;3.45;;;12.80;64.70;;;;;;5039794;28;20037;-69
2022/02/12 10:35:35;;;;;;;10.40;3.75;;;12.60;65.50;;;;;;5043942;28;20051;-69
2022/02/12 10:38:07;;;;;;;12.88;3.22;;;12.50;65.60;;;;;;5044903;28;20076;-69
2022/02/12 10:40:35;;;;;;;13.48;3.65;;;12.50;64.70;;;;;;5041852;28;20547;-69
2022/02/12 10:43:01;;;;;;;11.13;3.67;;;12.60;65.10;;;;;;5024737;28;20137;-69
2022/02/12 10:45:29;;;;;;;14.55;3.50;;;12.70;65.60;;;;;;5013707;28;20052;-69
2022/02/12 10:47:57;;;;;;;13.18;3.78;;;12.80;64.90;;;;;;5045405;28;20115;-69
2022/02/12 10:50:26;;;;;;;13.20;3.72;;;12.80;64.00;;;;;;5043464;28;20032;-70
2022/02/12 10:53:00;;;;;;;10.18;3.42;;;12.90;64.70;;;;;;5025093;28;20052;-70
2022/02/12 10:55:41;;;;;;;11.30;3.40;;;13.00;63.70;;;;;;5041226;28;20071;-70
2022/02/12 10:58:11;;;;;;;11.45;3.25;;;12.80;64.20;;;;;;5036003;28;20037;-70
2022/02/12 11:00:39;;;;;;;11.15;3.33;;;12.10;63.40;;;;;;5042959;28;20048;-70
2022/02/12 11:03:10;;;;;;;11.23;3.05;;;11.70;65.20;;;;;;5042557;28;20178;-70
2022/02/12 11:05:37;;;;;;;14.23;3.22;;;11.70;66.20;;;;;;5043377;28;20053;-70
2022/02/12 11:08:06;;;;;;;15.45;3.47;;;12.00;66.00;;;;;;5043891;28;20447;-71
2022/02/12 11:10:33;;;;;;;11.88;3.20;;;12.10;65.40;;;;;;5028852;28;20084;-70
2022/02/12 11:13:00;;;;;;;10.00;2.90;;;12.10;65.20;;;;;;5038056;28;20088;-70
2022/02/12 11:15:30;;;;;;;11.55;3.60;;;12.10;64.60;;;;;;5041041;28;20085;-69
2022/02/12 11:17:58;;;;;;;8.23;3.08;;;12.00;63.20;;;;;;5040738;28;20060;-69
2022/02/12 11:20:26;;;;;;;10.18;3.30;;;11.90;63.50;;;;;;5037680;28;20122;-69
2022/02/12 11:23:20;;;;;;;15.13;3.30;;;12.00;64.90;;;;;;5037703;28;20073;-70
2022/02/12 11:25:47;;;;;;;10.10;3.13;;;12.10;64.60;;;;;;5039081;28;20091;-70
2022/02/12 11:28:14;;;;;;;11.05;3.28;;;12.20;64.60;;;;;;5041803;28;20049;-70
2022/02/12 11:30:42;;;;;;;10.77;3.05;;;12.20;64.50;;;;;;5039340;28;20477;-70
2022/02/12 11:33:29;;;;;;;10.80;2.88;;;12.20;63.70;;;;;;5039747;28;20490;-70
2022/02/12 11:36:10;;;;;;;9.73;2.70;;;12.10;63.20;;;;;;5034208;28;20042;-70
2022/02/12 11:38:41;;;;;;;13.13;3.05;;;11.70;62.80;;;;;;5037078;28;20455;-70
2022/02/12 11:41:22;;;;;;;10.77;3.53;;;11.20;63.80;;;;;;5038159;28;20091;-70
2022/02/12 11:43:48;;;;;;;10.00;3.13;;;10.60;65.70;;;;;;5038144;28;20114;-70
2022/02/12 11:46:14;;;;;;;12.10;2.88;;;10.00;67.60;;;;;;5040863;28;20123;-70
2022/02/12 11:48:42;;;;;;;11.27;3.60;;;9.40;68.40;;;;;;5037755;28;20127;-70
2022/02/12 11:51:12;;;;;;;10.27;3.15;;;8.90;69.40;;;;;;5046363;28;20093;-70
2022/02/12 11:53:54;;;;;;;12.43;4.15;;;8.40;71.10;;;;;;5034923;28;20540;-70
2022/02/12 11:56:20;;;;;;;13.52;5.97;;;8.10;72.30;;;;;;5026421;28;20098;-70
2022/02/12 11:58:45;;;;;;;7.63;2.53;;;7.70;73.10;;;;;;5021022;28;20416;-70
2022/02/12 12:01:32;;;;;;;12.70;3.42;;;7.60;73.90;;;;;;5037766;28;20063;-70
2022/02/12 12:04:14;;;;;;;16.75;5.40;;;7.50;74.10;;;;;;5022780;28;20055;-70
2022/02/12 12:06:58;;;;;;;11.52;3.83;;;7.40;74.30;;;;;;5038672;28;20048;-70
2022/02/12 12:09:35;;;;;;;9.98;3.15;;;7.20;74.60;;;;;;5042149;28;20057;-70
2022/02/12 12:12:10;;;;;;;10.35;2.70;;;7.20;74.70;;;;;;5041502;28;20148;-70
2022/02/12 12:14:39;;;;;;;12.95;3.83;;;7.10;75.60;;;;;;5025804;28;20041;-70
2022/02/12 12:17:06;;;;;;;9.95;4.10;;;7.00;75.90;;;;;;5042120;28;20102;-70
2022/02/12 12:19:37;;;;;;;9.70;3.47;;;7.00;75.90;;;;;;5035978;28;20063;-70
2022/02/12 12:22:08;;;;;;;9.55;2.60;;;7.00;76.10;;;;;;5059687;28;20453;-68
2022/02/12 12:24:34;;;;;;;13.40;3.50;;;7.00;76.50;;;;;;5022297;28;20371;-70
2022/02/12 12:27:00;;;;;;;10.57;3.00;;;6.90;76.60;;;;;;5043006;28;20256;-69
2022/02/12 12:32:14;;;;;;;11.65;3.17;;;6.90;76.30;;;;;;5053330;28;20042;-71
2022/02/12 12:34:54;;;;;;;9.95;2.67;;;6.90;76.50;;;;;;5042234;28;20182;-70
2022/02/12 12:37:22;;;;;;;9.23;2.88;;;7.00;76.10;;;;;;5039206;28;20417;-70
2022/02/12 12:39:50;;;;;;;9.70;2.80;;;6.90;75.70;;;;;;5043546;28;20122;-70
2022/02/12 12:42:23;;;;;;;7.85;2.65;;;6.80;75.90;;;;;;5043532;28;20441;-70
2022/02/12 12:45:00;;;;;;;9.35;3.05;;;6.70;75.80;;;;;;5044137;28;20053;-70
2022/02/12 12:47:27;;;;;;;13.77;3.88;;;6.70;76.00;;;;;;5041083;28;20421;-70
2022/02/12 12:49:56;;;;;;;9.43;2.88;;;6.70;76.20;;;;;;5041170;28;20163;-69
2022/02/12 12:52:26;;;;;;;15.73;2.78;;;6.70;77.20;;;;;;5029941;28;20055;-69